Time;durP1;ratioP1;P1;durP2;ratioP2;P2;SDS_P1;SDS_P2;PMS_P1;PMS_P2;Temp;Humidity;BMP_temperature;BMP_pressure;BME280_temperature;BME280_humidity;BME280_pressure;Samples;Min_cycle;Max_cycle;Signal;HPM_P1;HPM_P2
2021/04/04 00:01:18;;;;;;;50.53;47.57;;;1.60;99.90;;;;;;4917602;29;20566;-82
2021/04/04 00:03:44;;;;;;;57.20;54.60;;;1.40;99.90;;;;;;4918014;29;20456;-82
2021/04/04 00:06:11;;;;;;;62.47;59.57;;;1.50;99.90;;;;;;4919418;29;20465;-82
2021/04/04 00:08:37;;;;;;;61.90;59.27;;;1.50;99.90;;;;;;4917789;29;20450;-82
2021/04/04 00:11:05;;;;;;;55.97;53.38;;;1.40;99.90;;;;;;4917592;29;20492;-82
2021/04/04 00:13:31;;;;;;;59.20;54.70;;;1.30;99.90;;;;;;4917789;29;20284;-82
2021/04/04 00:15:58;;;;;;;46.63;44.63;;;1.30;99.90;;;;;;4917707;29;20465;-82
2021/04/04 00:18:24;;;;;;;46.60;43.43;;;1.30;99.90;;;;;;4917532;29;20461;-82
2021/04/04 00:20:52;;;;;;;48.33;45.80;;;1.40;99.90;;;;;;4916350;29;20973;-82
2021/04/04 00:23:18;;;;;;;43.50;41.40;;;1.40;99.90;;;;;;4917398;29;20457;-82
2021/04/04 00:25:44;;;;;;;47.83;45.67;;;1.40;99.90;;;;;;4917384;29;21009;-81
2021/04/04 00:28:12;;;;;;;53.07;50.67;;;1.30;99.90;;;;;;4917267;29;20825;-82
2021/04/04 00:30:38;;;;;;;66.00;63.13;;;1.40;99.90;;;;;;4917322;29;20521;-81
2021/04/04 00:33:07;;;;;;;53.10;48.43;;;1.40;99.90;;;;;;4917226;29;20470;-82
2021/04/04 00:35:33;;;;;;;55.37;52.87;;;1.20;99.90;;;;;;4916204;29;20509;-82
2021/04/04 00:38:00;;;;;;;64.80;61.80;;;1.10;99.90;;;;;;4917073;29;20560;-82
2021/04/04 00:40:29;;;;;;;67.77;64.83;;;1.00;99.90;;;;;;4917442;29;20561;-82
2021/04/04 00:42:56;;;;;;;70.68;65.50;;;1.20;99.90;;;;;;4917020;29;20466;-82
2021/04/04 00:45:27;;;;;;;61.30;58.67;;;1.10;99.90;;;;;;4916259;29;20249;-82
2021/04/04 00:47:53;;;;;;;59.65;57.05;;;1.10;99.90;;;;;;4917076;29;20462;-82
2021/04/04 00:50:22;;;;;;;58.70;56.20;;;1.10;99.90;;;;;;4915708;29;20194;-82
2021/04/04 00:52:49;;;;;;;60.67;57.97;;;1.10;99.90;;;;;;4917203;29;20462;-82
2021/04/04 00:55:16;;;;;;;65.50;62.70;;;1.10;99.90;;;;;;4916840;29;20858;-82
2021/04/04 00:57:43;;;;;;;70.40;66.70;;;1.20;99.90;;;;;;4917207;29;20462;-82
2021/04/04 01:00:12;;;;;;;86.93;83.23;;;1.30;99.90;;;;;;4916866;29;20470;-82
2021/04/04 01:02:40;;;;;;;87.47;83.57;;;1.30;99.90;;;;;;4917038;29;20506;-82
2021/04/04 01:05:10;;;;;;;96.00;91.90;;;1.30;99.90;;;;;;4915464;29;20462;-82
2021/04/04 01:07:37;;;;;;;99.67;95.10;;;1.40;99.90;;;;;;4915608;29;20810;-82
2021/04/04 01:10:05;;;;;;;94.90;90.73;;;1.50;99.90;;;;;;4916711;29;20477;-82
2021/04/04 01:12:39;;;;;;;94.47;89.77;;;1.50;99.90;;;;;;4916767;29;20489;-82
2021/04/04 01:15:10;;;;;;;97.27;93.27;;;1.70;99.90;;;;;;4916077;29;20453;-82
2021/04/04 01:17:39;;;;;;;89.37;85.67;;;1.70;99.90;;;;;;4916940;29;20818;-82
2021/04/04 01:20:11;;;;;;;89.00;85.37;;;1.80;99.90;;;;;;4915402;29;20504;-82
2021/04/04 01:23:11;;;;;;;99.47;93.60;;;1.70;99.90;;;;;;4916457;29;20458;-82
2021/04/04 01:25:45;;;;;;;95.30;91.40;;;1.90;99.90;;;;;;4916494;29;20462;-82
2021/04/04 01:28:17;;;;;;;95.80;91.80;;;1.90;99.90;;;;;;4916695;29;20895;-82
2021/04/04 01:30:45;;;;;;;92.87;89.07;;;1.90;99.90;;;;;;4916260;29;20537;-82
2021/04/04 01:33:14;;;;;;;86.47;82.77;;;1.90;99.90;;;;;;4916674;29;20462;-82
2021/04/04 01:35:47;;;;;;;88.37;84.30;;;1.90;99.90;;;;;;4915317;29;20820;-82
2021/04/04 01:38:14;;;;;;;81.13;77.72;;;1.90;99.90;;;;;;4916595;29;20497;-82
2021/04/04 01:40:43;;;;;;;77.67;74.20;;;1.90;99.90;;;;;;4916399;29;20214;-82
2021/04/04 01:43:13;;;;;;;89.07;83.97;;;1.80;99.90;;;;;;4916627;29;20509;-82
2021/04/04 01:45:42;;;;;;;89.57;81.63;;;1.80;99.90;;;;;;4916568;29;20516;-82
2021/04/04 01:48:12;;;;;;;87.77;83.67;;;1.90;99.90;;;;;;4916327;29;20491;-82
2021/04/04 01:50:39;;;;;;;77.57;74.37;;;2.00;99.90;;;;;;4915220;29;20929;-82
2021/04/04 01:53:06;;;;;;;81.10;77.60;;;2.10;99.90;;;;;;4916075;29;20458;-82
2021/04/04 01:55:36;;;;;;;82.70;79.10;;;2.10;99.90;;;;;;4916383;29;20545;-82
2021/04/04 01:58:03;;;;;;;79.63;76.03;;;2.30;99.90;;;;;;4916236;29;20466;-82
2021/04/04 02:00:30;;;;;;;83.80;79.13;;;2.30;99.90;;;;;;4916443;29;20465;-82
2021/04/04 02:02:58;;;;;;;89.77;84.00;;;2.40;99.90;;;;;;4916016;29;20950;-82
2021/04/04 02:05:26;;;;;;;89.80;85.90;;;2.60;99.90;;;;;;4915072;29;20466;-82
2021/04/04 02:07:54;;;;;;;97.43;93.53;;;2.80;99.90;;;;;;4916271;29;20489;-82
2021/04/04 02:10:22;;;;;;;94.30;90.50;;;2.90;99.90;;;;;;4897545;29;20463;-82
2021/04/04 02:12:50;;;;;;;99.60;94.97;;;2.90;99.90;;;;;;4897408;29;20954;-82
2021/04/04 02:15:17;;;;;;;89.77;86.00;;;3.00;99.90;;;;;;4915600;29;20457;-82
2021/04/04 02:17:47;;;;;;;91.57;87.67;;;3.10;99.90;;;;;;4916291;29;20880;-82
2021/04/04 02:20:17;;;;;;;83.03;79.23;;;3.10;99.90;;;;;;4914628;29;20988;-82
2021/04/04 02:22:46;;;;;;;69.80;66.23;;;3.20;99.90;;;;;;4916333;29;20457;-82
2021/04/04 02:25:15;;;;;;;62.07;59.10;;;3.20;99.90;;;;;;4917199;29;20478;-82
2021/04/04 02:27:41;;;;;;;47.03;44.73;;;3.30;99.90;;;;;;4919801;29;20497;-82
2021/04/04 02:30:10;;;;;;;49.20;46.67;;;3.20;99.90;;;;;;4919330;29;20926;-82
2021/04/04 02:32:44;;;;;;;43.70;40.80;;;3.30;99.90;;;;;;4919491;29;20525;-82
2021/04/04 02:35:13;;;;;;;35.90;34.20;;;3.40;99.90;;;;;;4917972;29;20953;-82
2021/04/04 02:37:40;;;;;;;30.10;28.60;;;3.40;99.90;;;;;;4919569;29;20512;-82
2021/04/04 02:40:10;;;;;;;26.63;24.70;;;3.40;99.90;;;;;;4919343;29;20457;-82
2021/04/04 02:42:38;;;;;;;25.93;24.60;;;3.40;99.90;;;;;;4919472;29;20461;-82
2021/04/04 02:45:06;;;;;;;23.70;21.73;;;3.40;99.90;;;;;;4918920;29;20461;-82
2021/04/04 02:47:36;;;;;;;21.40;19.80;;;3.40;99.90;;;;;;4919576;29;20477;-83
2021/04/04 02:50:04;;;;;;;21.30;20.00;;;3.50;99.90;;;;;;4918060;29;20453;-82
2021/04/04 02:52:36;;;;;;;17.27;15.97;;;3.50;99.90;;;;;;4919265;29;20521;-82
2021/04/04 02:55:07;;;;;;;18.27;13.57;;;3.60;99.90;;;;;;4919308;29;20493;-81
2021/04/04 02:57:34;;;;;;;17.67;16.37;;;3.60;99.90;;;;;;4919187;29;20528;-82
2021/04/04 03:00:04;;;;;;;29.93;15.03;;;3.70;99.90;;;;;;4918946;29;20820;-82
2021/04/04 03:02:31;;;;;;;16.47;15.27;;;3.60;99.90;;;;;;4919153;29;20805;-82
2021/04/04 03:05:01;;;;;;;13.13;11.97;;;3.70;99.90;;;;;;4917775;29;20969;-82
2021/04/04 03:07:29;;;;;;;12.80;10.60;;;3.70;99.90;;;;;;4919125;29;20468;-82
2021/04/04 03:09:57;;;;;;;16.60;11.37;;;3.80;99.90;;;;;;4918618;29;20457;-82
2021/04/04 03:12:26;;;;;;;12.57;11.57;;;3.70;99.90;;;;;;4918965;29;20494;-82
2021/04/04 03:14:58;;;;;;;11.43;10.07;;;3.70;99.90;;;;;;4917935;29;20549;-82
2021/04/04 03:17:26;;;;;;;12.63;10.13;;;3.80;99.90;;;;;;4917574;29;20513;-82
2021/04/04 03:19:55;;;;;;;9.43;8.50;;;3.80;99.90;;;;;;4916232;29;20454;-82
2021/04/04 03:22:22;;;;;;;11.13;10.13;;;3.90;99.90;;;;;;4913797;29;20490;-82
2021/04/04 03:24:52;;;;;;;10.53;9.30;;;4.00;99.90;;;;;;4909230;29;20564;-81
2021/04/04 03:27:19;;;;;;;10.13;7.80;;;3.90;99.90;;;;;;4918534;29;20497;-81
2021/04/04 03:29:47;;;;;;;10.53;8.13;;;3.90;99.90;;;;;;4918627;29;20509;-82
2021/04/04 03:32:17;;;;;;;8.30;6.40;;;4.00;99.90;;;;;;4918458;29;21040;-82
2021/04/04 03:34:45;;;;;;;15.03;10.00;;;3.90;99.90;;;;;;4917437;29;20831;-82
2021/04/04 03:37:19;;;;;;;27.97;6.40;;;4.00;99.90;;;;;;4917767;29;20469;-82
2021/04/04 03:39:45;;;;;;;7.77;5.97;;;4.00;99.90;;;;;;4918558;29;20453;-82
2021/04/04 03:42:13;;;;;;;8.97;5.70;;;4.10;99.90;;;;;;4918111;29;20878;-83
2021/04/04 03:44:41;;;;;;;10.10;6.63;;;4.10;99.90;;;;;;4918442;29;20456;-82
2021/04/04 03:47:08;;;;;;;8.03;4.50;;;4.10;99.90;;;;;;4918210;29;20472;-82
2021/04/04 03:49:38;;;;;;;21.53;6.30;;;4.20;99.90;;;;;;4917359;29;20473;-82
2021/04/04 03:52:08;;;;;;;16.80;6.10;;;4.10;99.90;;;;;;4917915;29;20493;-83
2021/04/04 03:54:44;;;;;;;11.93;6.57;;;4.10;99.90;;;;;;4917824;29;20470;-83
2021/04/04 03:57:11;;;;;;;12.67;6.33;;;4.00;99.90;;;;;;4918671;29;20467;-82
2021/04/04 03:59:40;;;;;;;21.33;5.30;;;4.10;99.90;;;;;;4917299;29;20977;-82
2021/04/04 04:02:09;;;;;;;7.47;4.57;;;4.10;99.90;;;;;;4918017;29;20482;-82
2021/04/04 04:04:37;;;;;;;10.60;5.40;;;4.20;99.90;;;;;;4916569;29;20520;-82
2021/04/04 04:07:06;;;;;;;6.57;4.17;;;4.10;99.90;;;;;;4917963;29;20453;-83
2021/04/04 04:09:36;;;;;;;10.30;5.67;;;4.10;99.90;;;;;;4917726;29;20450;-83
2021/04/04 04:12:02;;;;;;;28.47;6.07;;;4.10;99.90;;;;;;4917287;29;20485;-83
2021/04/04 04:14:31;;;;;;;10.50;7.10;;;4.00;99.90;;;;;;4918011;29;20465;-82
2021/04/04 04:17:01;;;;;;;8.50;5.50;;;4.10;99.90;;;;;;4916959;29;20511;-82
2021/04/04 04:19:28;;;;;;;23.97;5.03;;;4.00;99.90;;;;;;4903950;29;20458;-82
2021/04/04 04:21:58;;;;;;;7.63;5.10;;;4.10;99.90;;;;;;4917472;29;20517;-82
2021/04/04 04:24:25;;;;;;;13.93;5.30;;;4.00;99.90;;;;;;4917022;29;20997;-82
2021/04/04 04:26:52;;;;;;;13.90;6.13;;;4.00;99.90;;;;;;4917838;29;20544;-82
2021/04/04 04:29:22;;;;;;;17.17;6.50;;;4.10;99.90;;;;;;4917199;29;20525;-83
2021/04/04 04:31:53;;;;;;;7.20;5.67;;;4.00;99.90;;;;;;4917154;29;20556;-83
2021/04/04 04:34:21;;;;;;;12.20;5.70;;;4.10;99.90;;;;;;4910208;29;20957;-83
2021/04/04 04:36:54;;;;;;;14.50;7.00;;;4.00;99.90;;;;;;4916475;29;20458;-83
2021/04/04 04:39:22;;;;;;;14.07;9.33;;;4.10;99.90;;;;;;4916473;29;20462;-83
2021/04/04 04:41:50;;;;;;;10.77;6.60;;;4.10;99.90;;;;;;4916266;29;20458;-82
2021/04/04 04:44:21;;;;;;;7.80;6.60;;;4.00;99.90;;;;;;4916515;29;21029;-82
2021/04/04 04:46:49;;;;;;;8.73;7.00;;;4.00;99.90;;;;;;4917237;29;20500;-82
2021/04/04 04:49:17;;;;;;;13.07;9.20;;;4.10;99.90;;;;;;4905263;29;20526;-82
2021/04/04 04:51:48;;;;;;;16.50;8.27;;;4.10;99.90;;;;;;4898311;29;20902;-82
2021/04/04 04:54:16;;;;;;;12.80;7.57;;;4.00;99.90;;;;;;4898152;29;20472;-83
2021/04/04 04:56:44;;;;;;;17.03;7.93;;;4.00;99.90;;;;;;4911198;29;20480;-82
2021/04/04 04:59:11;;;;;;;9.90;6.30;;;4.10;99.90;;;;;;4916194;29;20508;-82
2021/04/04 05:01:42;;;;;;;19.90;5.90;;;4.10;99.90;;;;;;4917169;29;20465;-83
2021/04/04 05:04:08;;;;;;;9.20;6.10;;;4.10;99.90;;;;;;4915777;29;20457;-82
2021/04/04 05:06:36;;;;;;;11.20;6.07;;;4.10;99.90;;;;;;4916248;29;20486;-82
2021/04/04 05:09:05;;;;;;;6.87;4.63;;;4.10;99.90;;;;;;4916881;29;20528;-83
2021/04/04 05:11:35;;;;;;;7.87;5.97;;;4.10;99.90;;;;;;4916583;29;20993;-82
2021/04/04 05:14:04;;;;;;;10.10;6.00;;;4.10;99.90;;;;;;4917159;29;20458;-82
2021/04/04 05:16:33;;;;;;;12.13;6.10;;;4.10;99.90;;;;;;4916771;29;20517;-82
2021/04/04 05:19:00;;;;;;;13.70;5.73;;;4.20;99.90;;;;;;4916907;29;21013;-83
2021/04/04 05:21:28;;;;;;;12.30;9.27;;;4.20;99.90;;;;;;4915195;29;20473;-82
2021/04/04 05:23:58;;;;;;;16.13;6.63;;;4.20;99.90;;;;;;4906612;29;20504;-83
2021/04/04 05:26:33;;;;;;;8.20;6.60;;;4.20;99.90;;;;;;4918129;29;20961;-83
2021/04/04 05:29:11;;;;;;;10.17;7.83;;;4.20;99.90;;;;;;4898683;29;20506;-82
2021/04/04 05:31:45;;;;;;;13.50;7.10;;;4.30;99.90;;;;;;4898321;29;20561;-82
2021/04/04 05:34:14;;;;;;;8.70;6.60;;;4.20;99.90;;;;;;4915206;29;20831;-83
2021/04/04 05:36:50;;;;;;;18.90;9.13;;;4.30;99.90;;;;;;4916579;29;20462;-82
2021/04/04 05:39:18;;;;;;;10.73;6.27;;;4.30;99.90;;;;;;4897707;29;20467;-82
2021/04/04 05:41:50;;;;;;;7.10;4.10;;;4.40;99.90;;;;;;4897762;29;20989;-82
2021/04/04 05:44:26;;;;;;;37.23;5.07;;;4.40;99.90;;;;;;4904709;29;20529;-82
2021/04/04 05:47:03;;;;;;;16.50;6.00;;;4.30;99.90;;;;;;4916447;29;20458;-82
2021/04/04 05:49:48;;;;;;;11.30;3.43;;;4.40;99.90;;;;;;4915592;29;20457;-82
2021/04/04 05:52:29;;;;;;;9.37;3.90;;;4.50;99.90;;;;;;4916226;29;20613;-83
2021/04/04 05:55:28;;;;;;;8.37;3.87;;;4.50;99.90;;;;;;4916116;29;20458;-83
2021/04/04 05:57:57;;;;;;;19.60;7.13;;;4.50;99.90;;;;;;4907547;29;20956;-83
2021/04/04 06:00:30;;;;;;;7.27;2.30;;;4.60;98.20;;;;;;4906151;29;21025;-83
2021/04/04 06:03:46;;;;;;;8.97;2.80;;;4.60;97.90;;;;;;4906412;29;20454;-83
2021/04/04 06:06:47;;;;;;;5.83;1.70;;;4.60;99.10;;;;;;4895737;29;20654;-83
2021/04/04 06:09:36;;;;;;;8.00;2.80;;;4.70;92.10;;;;;;4900633;29;20486;-83
2021/04/04 06:12:23;;;;;;;13.23;3.67;;;4.70;94.10;;;;;;4905917;29;20494;-82
2021/04/04 06:15:12;;;;;;;7.60;3.20;;;4.80;94.30;;;;;;4919943;29;20493;-83
2021/04/04 06:17:46;;;;;;;9.30;2.23;;;4.80;93.50;;;;;;4919147;29;20465;-81
2021/04/04 06:20:28;;;;;;;14.47;2.53;;;4.80;88.30;;;;;;4907509;29;20458;-82
2021/04/04 06:23:10;;;;;;;8.40;3.73;;;4.90;86.60;;;;;;4918259;29;20601;-83
2021/04/04 06:25:46;;;;;;;6.20;2.27;;;5.00;79.40;;;;;;4919716;29;20556;-84
2021/04/04 06:28:25;;;;;;;6.60;1.87;;;4.90;72.70;;;;;;4919636;29;20475;-84
2021/04/04 06:30:58;;;;;;;10.17;4.50;;;5.10;82.50;;;;;;4919610;29;20868;-83
2021/04/04 06:33:27;;;;;;;8.33;4.60;;;5.10;79.70;;;;;;4919446;29;20489;-83
2021/04/04 06:36:19;;;;;;;11.43;3.00;;;5.10;73.80;;;;;;4918748;29;20464;-82
2021/04/04 06:39:04;;;;;;;8.00;2.60;;;5.10;68.00;;;;;;4912612;29;20827;-82
2021/04/04 06:41:53;;;;;;;11.23;3.53;;;5.20;71.30;;;;;;4919616;29;20469;-82
2021/04/04 06:44:29;;;;;;;6.27;1.97;;;5.20;68.40;;;;;;4900756;29;20493;-82
2021/04/04 06:47:01;;;;;;;15.57;2.83;;;5.30;63.80;;;;;;4900839;29;20991;-82
2021/04/04 06:49:37;;;;;;;17.13;3.30;;;5.40;68.30;;;;;;4911783;29;20457;-82
2021/04/04 06:52:14;;;;;;;7.00;3.23;;;5.30;53.40;;;;;;4919203;29;20520;-81
2021/04/04 06:54:52;;;;;;;7.27;2.67;;;5.40;61.00;;;;;;4918206;29;20527;-82
2021/04/04 06:57:48;;;;;;;15.10;3.17;;;5.40;53.40;;;;;;4919039;29;20457;-82
2021/04/04 07:00:19;;;;;;;11.13;2.33;;;5.50;58.90;;;;;;4910739;29;20471;-82
2021/04/04 07:03:00;;;;;;;22.03;4.53;;;5.50;52.10;;;;;;4915521;29;20495;-82
2021/04/04 07:05:32;;;;;;;7.40;2.90;;;5.60;52.10;;;;;;4897798;29;20984;-82
2021/04/04 07:08:35;;;;;;;10.20;1.63;;;5.70;51.80;;;;;;4904904;29;20517;-83
2021/04/04 07:11:16;;;;;;;33.27;2.50;;;5.60;48.40;;;;;;4916942;29;20489;-82
2021/04/04 07:14:07;;;;;;;7.07;1.83;;;5.70;45.10;;;;;;4917568;29;20458;-82
2021/04/04 07:17:08;;;;;;;7.43;1.97;;;5.80;41.10;;;;;;4917242;29;20488;-81
2021/04/04 07:20:00;;;;;;;7.33;2.30;;;5.80;40.50;;;;;;4907810;29;20970;-81
2021/04/04 07:22:59;;;;;;;7.33;1.90;;;5.80;38.50;;;;;;4898318;29;20455;-81
2021/04/04 07:25:39;;;;;;;6.87;2.00;;;5.80;37.00;;;;;;4885247;29;20478;-81
2021/04/04 07:28:14;;;;;;;7.80;2.47;;;5.80;38.10;;;;;;4917235;29;20572;-82
2021/04/04 07:30:44;;;;;;;18.03;2.20;;;5.90;36.20;;;;;;4917253;29;20461;-82
2021/04/04 07:33:20;;;;;;;10.23;1.80;;;5.90;31.50;;;;;;4917257;29;20485;-82
2021/04/04 07:35:53;;;;;;;22.80;5.77;;;5.80;31.60;;;;;;4915901;29;20473;-81
2021/04/04 07:38:45;;;;;;;10.50;2.67;;;5.80;30.50;;;;;;4917296;29;20474;-80
2021/04/04 07:41:21;;;;;;;7.70;1.67;;;5.90;30.50;;;;;;4916333;29;20458;-82
2021/04/04 07:43:53;;;;;;;7.77;2.00;;;5.90;29.40;;;;;;4895622;29;20466;-82
2021/04/04 07:46:23;;;;;;;8.80;2.70;;;5.90;27.70;;;;;;4899087;29;20478;-81
2021/04/04 07:49:18;;;;;;;8.90;1.83;;;5.90;29.20;;;;;;4897472;29;20589;-81
2021/04/04 07:51:49;;;;;;;11.93;2.30;;;6.00;30.90;;;;;;4908237;29;20489;-81
2021/04/04 07:54:22;;;;;;;10.87;3.00;;;6.10;32.60;;;;;;4915352;29;20549;-81
2021/04/04 07:56:56;;;;;;;11.40;2.60;;;6.10;30.10;;;;;;4914467;29;20502;-84
2021/04/04 07:59:30;;;;;;;6.90;1.67;;;6.10;30.40;;;;;;4916182;29;20205;-82
2021/04/04 08:02:18;;;;;;;9.20;2.77;;;6.10;28.60;;;;;;4915764;29;20492;-82
2021/04/04 08:04:49;;;;;;;11.23;2.13;;;6.10;27.50;;;;;;4914212;29;20485;-82
2021/04/04 08:07:19;;;;;;;6.90;2.33;;;6.00;27.10;;;;;;4914468;29;20501;-82
2021/04/04 08:09:53;;;;;;;6.60;1.20;;;6.20;31.10;;;;;;4916023;29;20449;-82
2021/04/04 08:12:30;;;;;;;6.50;1.20;;;6.10;30.00;;;;;;4908465;29;20536;-82
2021/04/04 08:15:04;;;;;;;7.00;1.70;;;6.10;29.30;;;;;;4906222;29;20455;-82
2021/04/04 08:17:30;;;;;;;23.13;3.00;;;6.00;27.80;;;;;;4904912;29;20466;-82
2021/04/04 08:20:01;;;;;;;33.47;3.10;;;6.00;26.70;;;;;;4904206;29;20573;-82
2021/04/04 08:22:31;;;;;;;7.73;2.93;;;6.00;28.40;;;;;;4906383;29;20479;-81
2021/04/04 08:25:05;;;;;;;7.67;2.17;;;6.10;28.70;;;;;;4905940;29;20505;-82
2021/04/04 08:27:36;;;;;;;8.80;1.30;;;6.10;28.40;;;;;;4910300;29;20482;-82
2021/04/04 08:30:17;;;;;;;7.17;2.13;;;6.10;26.60;;;;;;4906117;29;20467;-82
2021/04/04 08:32:51;;;;;;;6.83;1.43;;;6.10;29.80;;;;;;4905478;29;20508;-85
2021/04/04 08:35:23;;;;;;;14.53;2.30;;;6.10;28.80;;;;;;4915104;29;20513;-82
2021/04/04 08:37:56;;;;;;;6.80;1.80;;;6.10;28.30;;;;;;4909956;29;20493;-83
2021/04/04 08:40:24;;;;;;;20.80;3.10;;;6.20;28.60;;;;;;4916345;29;20515;-82
2021/04/04 08:43:06;;;;;;;8.23;2.00;;;6.30;29.90;;;;;;4917275;29;20289;-85
2021/04/04 08:45:56;;;;;;;12.20;2.63;;;6.10;26.00;;;;;;4917551;29;20543;-83
2021/04/04 08:48:26;;;;;;;8.80;2.70;;;6.20;28.90;;;;;;4913486;29;20451;-84
2021/04/04 08:50:54;;;;;;;6.63;1.60;;;6.20;27.90;;;;;;4904114;29;20457;-83
2021/04/04 08:54:27;;;;;;;;;;;;;;;;;;;;;
2021/04/04 09:00:54;;;;;;;10.30;3.40;;;6.40;27.50;;;;;;4710094;29;20960;-83
2021/04/04 09:06:20;;;;;;;10.90;3.00;;;6.40;28.70;;;;;;4842498;29;20547;-84
2021/04/04 09:09:22;;;;;;;8.13;2.37;;;6.40;27.20;;;;;;4897168;29;20818;-84
2021/04/04 09:15:01;;;;;;;7.87;2.30;;;6.40;29.00;;;;;;4810358;29;20461;-82
2021/04/04 09:18:16;;;;;;;9.80;2.50;;;6.50;28.60;;;;;;4896633;29;20461;-84
2021/04/04 09:20:50;;;;;;;15.23;4.03;;;6.60;27.10;;;;;;4902435;29;20490;-83
2021/04/04 09:23:33;;;;;;;;;;;;;;;;;;;;;
2021/04/04 09:26:58;;;;;;;;;;;;;;;;;;;;;
2021/04/04 09:29:38;;;;;;;7.20;1.60;;;6.60;27.80;;;;;;4796791;29;20524;-83
2021/04/04 09:32:16;;;;;;;13.33;1.80;;;6.80;25.90;;;;;;4801693;29;20476;-84
2021/04/04 09:34:46;;;;;;;7.90;2.03;;;6.90;28.30;;;;;;4841778;29;20458;-83
2021/04/04 09:37:31;;;;;;;8.50;1.73;;;7.10;25.00;;;;;;4915612;29;20964;-85
2021/04/04 09:39:59;;;;;;;7.40;1.60;;;7.00;24.60;;;;;;4915872;29;20459;-85
2021/04/04 09:42:45;;;;;;;10.93;2.30;;;7.10;22.60;;;;;;4915483;29;20486;-84
2021/04/04 09:45:21;;;;;;;8.00;1.60;;;7.10;24.80;;;;;;4915319;29;20859;-83
2021/04/04 09:48:40;;;;;;;8.27;1.77;;;7.00;23.60;;;;;;4912946;29;20896;-84
2021/04/04 09:57:53;;;;;;;;;;;;;;;;;;;;;
2021/04/04 10:01:11;;;;;;;8.87;2.57;;;7.80;22.90;;;;;;4856460;29;20473;-84
2021/04/04 10:10:30;;;;;;;13.57;3.53;;;7.80;18.80;;;;;;4870430;29;20454;-83
2021/04/04 10:15:52;;;;;;;9.37;3.27;;;7.80;19.20;;;;;;4913546;29;20456;-83
2021/04/04 10:18:21;;;;;;;16.43;3.13;;;7.70;21.50;;;;;;4897601;29;20561;-83
2021/04/04 10:24:10;;;;;;;16.53;3.17;;;7.90;19.20;;;;;;4914164;29;20498;-84
2021/04/04 10:26:37;;;;;;;7.10;1.30;;;7.80;20.40;;;;;;4915169;29;21010;-84
2021/04/04 10:29:24;;;;;;;7.13;1.47;;;7.70;19.00;;;;;;4915240;29;20476;-83
2021/04/04 10:32:02;;;;;;;12.30;2.20;;;7.90;19.00;;;;;;4912176;29;20479;-84
2021/04/04 10:35:06;;;;;;;12.20;3.63;;;7.90;19.50;;;;;;4900081;29;20469;-82
2021/04/04 10:40:47;;;;;;;13.47;2.83;;;8.50;15.60;;;;;;4898735;29;20840;-84
2021/04/04 10:46:49;;;;;;;8.57;2.83;;;8.30;16.30;;;;;;4877512;29;20958;-83
2021/04/04 10:49:20;;;;;;;11.00;2.50;;;8.40;13.80;;;;;;4918576;29;20889;-83
2021/04/04 10:51:53;;;;;;;18.23;2.83;;;8.40;12.30;;;;;;4918663;29;20482;-84
2021/04/04 10:54:32;;;;;;;11.97;2.83;;;8.40;16.10;;;;;;4918699;29;20466;-83
2021/04/04 10:57:10;;;;;;;;;;;;;;;;;;;;;
2021/04/04 10:59:47;;;;;;;8.30;2.27;;;8.20;14.60;;;;;;4914073;29;20539;-85
2021/04/04 11:02:25;;;;;;;14.13;2.03;;;8.10;15.30;;;;;;4918734;29;20465;-84
2021/04/04 11:04:56;;;;;;;8.50;2.60;;;8.00;15.10;;;;;;4917465;29;20552;-84
2021/04/04 11:07:49;;;;;;;9.40;2.40;;;8.20;15.80;;;;;;4919225;29;20461;-84
2021/04/04 11:10:36;;;;;;;10.53;2.97;;;8.50;15.70;;;;;;4918631;29;20486;-84
2021/04/04 11:13:21;;;;;;;9.70;2.60;;;8.60;15.50;;;;;;4907809;29;20493;-84
2021/04/04 11:16:17;;;;;;;11.50;2.30;;;8.90;13.00;;;;;;4918760;29;20460;-84
2021/04/04 11:18:54;;;;;;;17.43;3.10;;;8.60;13.90;;;;;;4919194;29;20458;-85
2021/04/04 11:21:44;;;;;;;8.67;2.33;;;8.80;14.70;;;;;;4899877;29;20461;-85
2021/04/04 11:24:29;;;;;;;11.30;2.87;;;8.50;14.90;;;;;;4898582;29;20535;-85
2021/04/04 11:31:03;;;;;;;20.40;3.80;;;8.20;15.00;;;;;;4887462;29;20464;-84
2021/04/04 11:33:54;;;;;;;12.10;2.60;;;8.10;14.90;;;;;;4917323;29;20496;-84
2021/04/04 11:39:40;;;;;;;11.20;2.83;;;8.60;13.40;;;;;;4907941;29;21004;-84
2021/04/04 11:42:28;;;;;;;8.53;2.07;;;8.80;12.50;;;;;;4913146;29;20910;-84
2021/04/04 11:45:12;;;;;;;9.43;2.13;;;8.70;12.40;;;;;;4917334;29;20458;-85
2021/04/04 11:47:49;;;;;;;13.50;2.90;;;8.70;12.40;;;;;;4914623;29;20968;-84
2021/04/04 11:50:54;;;;;;;10.47;2.03;;;8.60;14.10;;;;;;4915011;29;21020;-84
2021/04/04 11:53:49;;;;;;;10.60;2.97;;;8.70;12.40;;;;;;4894866;29;20501;-84
2021/04/04 12:00:02;;;;;;;15.00;4.50;;;8.40;14.50;;;;;;4893166;29;20480;-85
2021/04/04 12:02:40;;;;;;;12.73;2.53;;;8.40;16.50;;;;;;4904085;29;20465;-85
2021/04/04 12:05:29;;;;;;;12.87;2.63;;;8.30;14.50;;;;;;4900355;29;20472;-84
2021/04/04 12:07:58;;;;;;;16.20;4.22;;;8.40;14.50;;;;;;4910765;29;20448;-86
2021/04/04 12:10:40;;;;;;;10.13;3.27;;;8.60;18.40;;;;;;4916475;29;20197;-84
2021/04/04 12:13:30;;;;;;;9.00;2.20;;;8.30;15.40;;;;;;4909497;29;20572;-85
2021/04/04 12:16:07;;;;;;;18.63;3.20;;;8.20;15.00;;;;;;4917726;29;20465;-85
2021/04/04 12:18:37;;;;;;;10.57;3.20;;;8.40;15.30;;;;;;4920053;29;20501;-84
2021/04/04 12:21:37;;;;;;;;;;;;;;;;;;;;;
2021/04/04 12:24:17;;;;;;;11.83;2.77;;;8.80;14.20;;;;;;4911170;29;20474;-85
2021/04/04 12:29:57;;;;;;;9.43;2.10;;;9.00;11.50;;;;;;4910389;29;20458;-84
2021/04/04 12:35:55;;;;;;;11.50;3.60;;;9.20;11.10;;;;;;4836353;29;20599;-84
2021/04/04 12:38:26;;;;;;;10.90;2.60;;;9.70;10.70;;;;;;4915095;29;20513;-84
2021/04/04 12:41:01;;;;;;;10.97;2.13;;;9.90;5.80;;;;;;4916230;29;20469;-85
2021/04/04 12:43:51;;;;;;;17.83;3.00;;;9.70;8.00;;;;;;4914854;29;20458;-85
2021/04/04 12:46:33;;;;;;;14.50;3.10;;;9.90;7.10;;;;;;4898153;29;20457;-84
2021/04/04 12:49:20;;;;;;;10.17;2.40;;;9.80;7.10;;;;;;4913087;29;20458;-85
2021/04/04 12:51:51;;;;;;;12.10;3.50;;;9.80;7.10;;;;;;4899740;29;20494;-84
2021/04/04 12:54:35;;;;;;;16.50;1.90;;;9.70;6.80;;;;;;4916843;29;20458;-84
2021/04/04 12:57:16;;;;;;;12.70;2.33;;;9.90;6.90;;;;;;4916929;29;20464;-85
2021/04/04 12:59:59;;;;;;;;;;;;;;;;;;;;;
2021/04/04 13:02:29;;;;;;;14.13;3.30;;;9.50;6.00;;;;;;4916723;29;21027;-85
2021/04/04 13:05:03;;;;;;;23.03;3.17;;;9.70;5.00;;;;;;4915975;29;20463;-84
2021/04/04 13:07:43;;;;;;;11.27;2.70;;;10.00;5.10;;;;;;4916631;29;20464;-85
2021/04/04 13:10:22;;;;;;;11.10;3.10;;;10.10;4.90;;;;;;4916320;29;20461;-85
2021/04/04 13:12:52;;;;;;;9.27;1.67;;;10.20;6.40;;;;;;4916631;29;20504;-85
2021/04/04 13:15:41;;;;;;;;;;;;;;;;;;;;;
2021/04/04 13:18:23;;;;;;;16.90;3.27;;;10.20;5.20;;;;;;4899899;29;20484;-85
2021/04/04 13:21:33;;;;;;;;;;;;;;;;;;;;;
2021/04/04 13:24:16;;;;;;;13.00;4.20;;;9.90;6.60;;;;;;4908943;29;20488;-85
2021/04/04 13:26:49;;;;;;;10.53;2.97;;;10.00;3.10;;;;;;4916436;29;20485;-84
2021/04/04 13:29:40;;;;;;;15.37;3.20;;;10.30;4.00;;;;;;4916856;29;20461;-85
2021/04/04 13:32:23;;;;;;;11.50;3.67;;;10.50;3.50;;;;;;4916640;29;20480;-85
2021/04/04 13:38:06;;;;;;;;;;;;;;;;;;;;;
2021/04/04 13:40:38;;;;;;;12.67;2.23;;;9.90;6.40;;;;;;4876990;29;20471;-84
2021/04/04 13:43:11;;;;;;;12.10;2.97;;;9.70;5.60;;;;;;4914860;29;20475;-86
2021/04/04 13:46:05;;;;;;;25.07;4.03;;;9.70;8.10;;;;;;4914201;29;20462;-85
2021/04/04 13:48:57;;;;;;;12.13;3.73;;;10.00;5.20;;;;;;4914349;29;20547;-84
2021/04/04 13:52:00;;;;;;;13.70;3.33;;;10.20;5.00;;;;;;4912761;29;20942;-85
2021/04/04 13:55:02;;;;;;;11.07;2.80;;;10.30;3.50;;;;;;4902474;29;20485;-86
2021/04/04 13:57:45;;;;;;;19.30;3.50;;;10.00;5.70;;;;;;4911252;29;20512;-86
2021/04/04 14:00:49;;;;;;;15.00;3.10;;;10.10;2.30;;;;;;4911914;29;20461;-85
2021/04/04 14:03:38;;;;;;;12.53;2.67;;;10.50;1.80;;;;;;4914080;29;21114;-84
2021/04/04 14:06:37;;;;;;;14.90;3.07;;;10.60;1.00;;;;;;4913164;29;20516;-84
2021/04/04 14:09:19;;;;;;;13.30;2.70;;;10.60;1.00;;;;;;4914718;29;20455;-85
2021/04/04 14:12:25;;;;;;;;;;;;;;;;;;;;;
2021/04/04 14:18:35;;;;;;;12.03;3.10;;;11.20;1.00;;;;;;4914098;29;20890;-85
2021/04/04 14:21:14;;;;;;;15.50;3.97;;;11.20;1.00;;;;;;4913808;29;20484;-86
2021/04/04 14:24:31;;;;;;;11.10;2.67;;;11.40;1.00;;;;;;4917661;29;20492;-84
2021/04/04 14:27:40;;;;;;;;;;;;;;;;;;;;;
2021/04/04 14:33:43;;;;;;;14.03;3.33;;;11.10;1.00;;;;;;4911988;29;20532;-85
2021/04/04 14:39:56;;;;;;;;;;;;;;;;;;;;;
2021/04/04 14:43:09;;;;;;;14.87;4.20;;;10.50;1.00;;;;;;4899079;29;20556;-85
2021/04/04 14:46:32;;;;;;;16.07;3.63;;;10.30;5.20;;;;;;4913492;29;20487;-83
2021/04/04 14:49:36;;;;;;;12.30;2.90;;;10.80;3.30;;;;;;4902986;29;20535;-85
2021/04/04 14:52:14;;;;;;;20.70;4.67;;;11.10;1.00;;;;;;4897291;29;21054;-82
2021/04/04 14:55:07;;;;;;;22.43;4.30;;;11.00;1.00;;;;;;4917705;29;20456;-86
2021/04/04 14:57:55;;;;;;;;;;;;;;;;;;;;;
2021/04/04 15:00:33;;;;;;;15.33;3.73;;;10.80;1.60;;;;;;4916091;29;20472;-84